This is the latest recevied weather packets stored in our database for station/object 9W2CEW-1. If no packets are shown the sender has not sent any weather packets the latest 10 day(s).
| Time | Temp. | Humidity | Pressure | Rain* | Wind** | Luminosity | Snow |
|---|---|---|---|---|---|---|---|
| 1777846747 | 31.67° C | 72% | 1003.5 hPa | - | - | - | - |
| 1777845847 | 31.67° C | 71% | 1003.4 hPa | - | - | - | - |
| 1777844947 | 31.67° C | 71% | 1003.1 hPa | - | - | - | - |
| 1777844047 | 31.11° C | 73% | 1003 hPa | - | - | - | - |
| 1777843147 | 31.67° C | 70% | 1002.9 hPa | - | - | - | - |
| 1777842247 | 31.67° C | 70% | 1003 hPa | - | - | - | - |
| 1777841347 | 31.11° C | 73% | 1003 hPa | - | - | - | - |
| 1777840447 | 30.56° C | 74% | 1002.9 hPa | - | - | - | - |
| 1777839547 | 31.67° C | 72% | 1002.9 hPa | - | - | - | - |
| 1777838648 | 31.11° C | 72% | 1003 hPa | - | - | - | - |
| 1777837748 | 31.11° C | 72% | 1003.2 hPa | - | - | - | - |
| 1777836848 | 31.67° C | 71% | 1003.4 hPa | - | - | - | - |
| 1777835948 | 31.11° C | 73% | 1003.5 hPa | - | - | - | - |
| 1777835048 | 32.22° C | 70% | 1003.8 hPa | - | - | - | - |
| 1777834148 | 31.67° C | 71% | 1003.9 hPa | - | - | - | - |
| 1777833248 | 31.11° C | 73% | 1003.9 hPa | - | - | - | - |
| 1777832348 | 31.11° C | 73% | 1004.1 hPa | - | - | - | - |
| 1777831448 | 31.67° C | 71% | 1004.1 hPa | - | - | - | - |
| 1777830547 | 31.11° C | 73% | 1004 hPa | - | - | - | - |
| 1777829647 | 31.67° C | 71% | 1004 hPa | - | - | - | - |
| 1777828747 | 31.11° C | 74% | 1004.3 hPa | - | - | - | - |
| 1777827847 | 31.67° C | 67% | 1004.5 hPa | - | - | - | - |
| 1777826947 | 32.22° C | 68% | 1004.9 hPa | - | - | - | - |
| 1777826047 | 31.67° C | 70% | 1005.1 hPa | - | - | - | - |
| 1777825409 | 32.22° C | 66% | 1005.3 hPa | - | - | - | - |
* Rain since midnight (hover to see other rain measurements)
** Current wind speed in m/s (hover to see current wind gust speed)